1979 16P:ROSA (1979043S11161)


On this page: IBTrACS data - Map and Plots - Positions - Intensities - Original source data

Summary

Start Feb 12
End Mar 4
Basins SI
SP
LMI 95 kt
Sources jtwc_sh
bom
td9636
neumann
ds824_au
ds824_sh
In WMO? Yes
Previous storm 1979 13P (SP)
Previous in basin 1979 13P (SP)
Concurrent storms 1979 10S (SI)
1979 12S (SI)
1979 14S (SI)
1979 13P (SP)
1979 16P (SP)
1979 15S (SI)
1979 17P (SP)
Next in basin 1979 17P (SP)
Next storm 1979 15S (SI)

top of page IBTrACS Data: File Access

top of page HURSAT Data: File Access

Image of storm

top of page Plots:

Map of storm track will not appear if FTP is down
Time series of cyclone Maximum Sustained Wind will not appear if FTP is down
Time series of cyclone Minimum Central Pressure will not appear if FTP is down

top of page Track Data:Position

jtwc_sh bom td9636 neumann ds824_au ds824_sh
Date Lat Lon Lat Lon Lat Lon Lat Lon Lat Lon Lat Lon
1979-02-12 00:00:00 -11.4 160.6 -11.2 161.1 -11.4 160.6
1979-02-12 06:00:00 -12.6 159.0 -12.1 159.6 -12.5 159.1
1979-02-12 12:00:00 -13.1 157.7 -13.1 158.1 -13.0 157.7
1979-02-12 18:00:00 -12.6 156.7 -12.5 157.1 -12.6 156.7
1979-02-13 00:00:00 -11.8 155.7 -11.9 156.1 -11.8 155.7
1979-02-13 06:00:00 -11.3 154.4 -11.4 154.8 -11.2 154.5
1979-02-13 12:00:00 -10.8 153.3 -10.9 153.6 -10.8 153.3
1979-02-13 18:00:00 -10.4 152.6 -10.6 152.9 -10.5 152.6
1979-02-14 00:00:00 -10.3 151.9 -10.3 152.3 -10.4 151.9
1979-02-14 06:00:00 -10.6 150.7 -10.6 151.1 -10.6 150.8
1979-02-14 12:00:00 -11.0 149.5 -11.0 149.9 -11.0 149.6
1979-02-14 18:00:00 -11.2 148.7 -11.2 149.1 -11.2 148.8
1979-02-15 00:00:00 -11.5 148.0 -11.4 148.3 -11.5 148.0
1979-02-15 06:00:00 -12.0 147.1 -11.9 147.4 -12.0 147.1
1979-02-15 12:00:00 -12.5 146.3 -12.4 146.6 -12.4 146.3
1979-02-15 18:00:00 -12.7 145.8 -12.6 146.0 -12.6 145.7
1979-02-16 00:00:00 -12.8 145.1 -12.8 145.4 -12.8 145.0
1979-02-16 06:00:00 -13.1 144.1 -13.1 144.3 -13.0 144.1
1979-02-16 12:00:00 -13.5 142.6 -13.4 143.0 -13.3 143.1
1979-02-16 18:00:00 -13.7 141.8 -13.7 142.1 -13.7 141.8
1979-02-17 00:00:00 -14.5 140.1 -14.3 140.3 -14.5 140.1 -14.2 140.7 -14.3 140.4 -14.5 140.1
1979-02-17 06:00:00 -14.8 139.0 -14.8 139.2 -14.8 139.0 -14.7 139.8 -14.8 139.3 -14.8 139.0
1979-02-17 12:00:00 -15.0 138.2 -15.1 138.5 -15.0 138.2 -15.0 138.9 -15.1 138.5 -15.0 138.2
1979-02-17 18:00:00 -15.1 137.8 -15.3 137.9 -15.1 137.7 -15.2 138.3 -15.3 137.9 -15.1 137.8
1979-02-18 00:00:00 -15.3 137.5 -15.4 137.5 -15.3 137.5 -15.4 137.7 -15.4 137.5 -15.3 137.5
jtwc_sh bom td9636 neumann ds824_au ds824_sh
1979-02-18 06:00:00 -15.5 137.3 -15.6 137.3 -15.6 137.3 -15.6 137.6 -15.6 137.3 -15.5 137.3
1979-02-18 12:00:00 -15.8 137.2 -15.8 137.3 -15.8 137.2 -15.8 137.5 -15.8 137.3 -15.8 137.2
1979-02-18 18:00:00 -16.0 137.2 -16.0 137.5 -16.0 137.2 -16.0 137.7 -16.0 137.5 -16.0 137.2
1979-02-19 00:00:00 -16.1 137.5 -16.2 137.8 -16.1 137.5 -16.2 138.0 -16.2 137.8 -16.1 137.5
1979-02-19 06:00:00 -16.1 138.1 -16.2 138.3 -16.1 138.1 -16.1 138.4 -16.2 138.3 -16.1 138.1
1979-02-19 12:00:00 -16.0 138.8 -16.0 138.8 -16.0 138.8 -16.0 138.9 -16.0 138.8 -16.0 138.8
1979-02-19 18:00:00 -15.8 139.3 -15.8 139.3 -15.8 139.4 -15.9 139.3 -15.8 139.2 -15.8 139.3
1979-02-20 00:00:00 -15.7 139.8 -15.7 139.6 -15.7 139.8 -15.7 139.8 -15.7 139.6 -15.7 139.8
1979-02-20 06:00:00 -15.8 140.1 -15.8 139.9 -15.8 140.0 -15.8 140.0 -15.8 139.9 -15.8 140.1
1979-02-20 12:00:00 -16.0 140.1 -16.0 140.1 -16.0 140.1 -16.0 140.3 -16.0 140.1 -16.0 140.1
1979-02-20 18:00:00 -16.1 140.0 -16.2 140.1 -16.2 140.0 -16.1 140.2 -16.2 140.1 -16.1 140.0
1979-02-21 00:00:00 -16.3 139.8 -16.3 139.9 -16.3 139.8 -16.3 140.1 -16.3 139.9 -16.3 139.8
1979-02-21 06:00:00 -16.2 139.4 -16.2 139.6 -16.2 139.4 -16.2 139.8 -16.2 139.6 -16.2 139.4
1979-02-21 12:00:00 -16.0 139.0 -16.0 139.3 -16.0 139.0 -16.0 139.5 -16.0 139.3 -16.0 139.0
1979-02-21 18:00:00 -15.8 138.8 -15.8 138.9 -15.8 138.8 -15.8 139.2 -15.8 139.0 -15.8 138.8
1979-02-22 00:00:00 -15.5 138.7 -15.5 138.6 -15.5 138.7 -15.5 138.8 -15.5 138.6 -15.5 138.7
1979-02-22 06:00:00 -15.2 138.3 -15.1 138.1 -15.3 138.3 -15.1 138.4 -15.1 138.1 -15.2 138.3
1979-02-22 12:00:00 -14.9 138.0 -14.7 137.8 -14.9 138.0 -14.8 138.1 -14.7 137.8 -14.9 138.0
1979-02-22 18:00:00 -14.2 138.0 -14.3 137.7 -14.2 138.0 -14.4 137.9 -14.3 137.7 -14.2 138.0
1979-02-23 00:00:00 -13.6 138.0 -13.7 138.0 -13.6 138.0 -13.8 138.2 -13.7 138.0 -13.6 138.0
1979-02-23 06:00:00 -13.7 137.9 -13.9 138.2 -13.7 137.9 -13.8 138.4 -13.9 138.2 -13.7 137.9
1979-02-23 12:00:00 -14.0 137.8 -14.1 137.6 -14.0 137.8 -14.1 137.9 -14.1 137.6 -14.0 137.8
1979-02-23 18:00:00 -13.8 137.6 -13.8 137.4 -13.8 137.6 -13.8 137.6 -13.8 137.4 -13.8 137.6
1979-02-24 00:00:00 -13.7 137.5 -13.7 137.4 -13.7 137.5 -13.7 137.6 -13.7 137.4 -13.7 137.5
jtwc_sh bom td9636 neumann ds824_au ds824_sh
1979-02-24 06:00:00 -14.1 137.6 -13.5 137.5 -14.0 137.6 -13.5 137.7 -13.5 137.5 -14.1 137.6
1979-02-24 12:00:00 -14.5 137.8 -13.6 137.8 -14.5 137.8 -13.6 137.9 -13.6 137.8 -14.5 137.8
1979-02-24 18:00:00 -14.8 137.8 -14.4 138.0 -14.8 137.8 -14.3 138.2 -14.4 138.0 -14.8 137.8
1979-02-25 00:00:00 -15.0 137.7 -15.0 137.9 -15.0 137.7 -14.9 138.1 -15.0 137.9 -15.0 137.7
1979-02-25 06:00:00 -15.0 137.4 -15.1 137.8 -15.1 137.4 -15.1 138.0 -15.1 137.8 -15.0 137.4
1979-02-25 12:00:00 -15.1 137.0 -15.2 137.6 -15.1 137.0 -15.2 137.8 -15.2 137.6 -15.1 137.0
1979-02-25 18:00:00 -15.1 136.8 -15.1 137.3 -15.1 136.8 -15.1 137.5 -15.1 137.3 -15.1 136.8
1979-02-26 00:00:00 -15.2 136.5 -15.2 136.6 -15.2 136.5 -15.2 137.0 -15.2 136.7 -15.2 136.5
1979-02-26 06:00:00 -15.4 136.0 -15.5 135.9 -15.5 136.0 -15.4 136.2 -15.5 135.9 -15.4 136.0
1979-02-26 12:00:00 -15.8 135.5 -15.7 134.8 -15.8 135.5 -15.7 135.2 -15.7 134.8 -15.8 135.5
1979-02-26 18:00:00 -15.9 135.0 -16.0 134.1 -16.0 135.1 -16.0 134.5 -16.0 134.2 -15.9 135.0
1979-02-27 00:00:00 -16.2 134.5 -16.4 133.7 -16.2 134.5 -16.4 133.9 -16.4 133.7 -16.2 134.5
1979-02-27 06:00:00 -16.8 133.2 -16.7 133.0 -16.7 133.1 -16.7 133.2 -16.7 133.1 -16.8 133.2
1979-02-27 12:00:00 -17.4 131.5 -17.0 132.2 -17.4 131.5 -17.0 132.5 -17.0 132.2 -17.4 131.5
1979-02-27 18:00:00 -18.0 130.2 -17.6 130.9 -18.0 130.1 -17.5 131.3 -17.6 131.0 -18.0 130.2
1979-02-28 00:00:00 -18.5 129.0 -18.1 129.5 -18.5 129.0 -18.1 129.9 -18.1 129.6 -18.5 129.0
1979-02-28 06:00:00 -18.4 128.4 -18.3 128.8 -18.4 128.5
1979-02-28 12:00:00 -18.6 127.4 -18.6 127.7 -18.6 127.4
1979-02-28 18:00:00 -18.9 126.2 -18.9 126.5 -18.9 126.2
1979-03-01 00:00:00 -19.2 125.1 -19.2 125.4 -19.2 125.2
1979-03-01 06:00:00 -19.4 124.6 -19.3 124.9 -19.4 124.7
1979-03-01 12:00:00 -19.5 124.2 -19.5 124.4 -19.5 124.2
1979-03-01 18:00:00 -19.6 123.5 -19.6 123.6 -19.6 123.5
1979-03-02 00:00:00 -19.8 122.7 -19.8 122.9 -19.8 122.6
jtwc_sh bom td9636 neumann ds824_au ds824_sh
1979-03-02 06:00:00 -20.0 121.6 -20.0 121.8 -20.1 121.5
1979-03-02 12:00:00 -20.4 120.4 -20.3 120.7 -20.4 120.4
1979-03-02 18:00:00 -20.7 119.7 -20.7 119.8 -20.6 119.7
1979-03-03 00:00:00 -21.0 118.8 -21.0 119.0 -21.0 118.7
1979-03-03 06:00:00 -21.7 116.8 -21.5 117.3 -21.6 116.9
1979-03-03 12:00:00 -22.3 114.7 -22.2 115.2 -22.3 114.7
1979-03-03 18:00:00 -22.6 113.4 -22.6 113.7
1979-03-04 00:00:00 -22.9 112.3

top of pageTrack Data:Intensity

jtwc_sh bom td9636 neumann ds824_au ds824_sh
Date Wind Pres Wind Pres Wind Pres Wind Pres Wind Pres Wind Pres
1979-02-12 00:00:00 10. 1008.
1979-02-12 06:00:00 10. 1008.
1979-02-12 12:00:00 10. 1008.
1979-02-12 18:00:00 10. 1008.
1979-02-13 00:00:00 10. 1008.
1979-02-13 06:00:00 10. 1008.
1979-02-13 12:00:00 10. 1008.
1979-02-13 18:00:00 1008. 10. 1008.
1979-02-14 00:00:00 1008. 10. 1008. 15. 1008.
1979-02-14 06:00:00 1008. 10. 1008. 15. 1008.
1979-02-14 12:00:00 1008. 10. 1008. 15. 1008.
1979-02-14 18:00:00 1007. 15. 1007. 15. 1008.
1979-02-15 00:00:00 1007. 15. 1007. 15. 1007.
1979-02-15 06:00:00 1006. 15. 1006. 15. 1007.
1979-02-15 12:00:00 1006. 15. 1006. 15. 1006.
1979-02-15 18:00:00 1006. 15. 1006. 15. 1006.
1979-02-16 00:00:00 1006. 15. 1006. 15. 1006.
1979-02-16 06:00:00 1005. 20. 1005. 15. 1006.
1979-02-16 12:00:00 1005. 20. 1005. 15. 1006.
1979-02-16 18:00:00 1006. 20. 1005. 15. 1006.
1979-02-17 00:00:00 25. 1007. 15. 1006. 15. 1007. 25.
1979-02-17 06:00:00 25. 1006. 15. 1006. 15. 1007. 25.
1979-02-17 12:00:00 30. 1006. 15. 1006. 15. 1006. 30.
1979-02-17 18:00:00 30. 1005. 20. 1005. 15. 1006. 30.
1979-02-18 00:00:00 30. 1005. 20. 1005. 20. 1005. 30.
jtwc_sh bom td9636 neumann ds824_au ds824_sh
1979-02-18 06:00:00 30. 1004. 20. 1004. 20. 1005. 30.
1979-02-18 12:00:00 30. 1004. 20. 1004. 20. 1004. 30.
1979-02-18 18:00:00 30. 1002. 25. 1003. 20. 1004. 30.
1979-02-19 00:00:00 30. 1002. 25. 1002. 25. 1002. 30.
1979-02-19 06:00:00 30. 999. 30. 1000. 25. 1002. 30.
1979-02-19 12:00:00 30. 999. 30. 999. 30. 999. 30.
1979-02-19 18:00:00 30. 1000. 30. 999. 30. 999. 30.
1979-02-20 00:00:00 30. 1000. 30. 1000. 30. 1000. 30.
1979-02-20 06:00:00 30. 1000. 30. 1000. 30. 1000. 30.
1979-02-20 12:00:00 30. 1000. 25. 30. 1000. 30. 1000. 30.
1979-02-20 18:00:00 35. 1000. 25. 30. 1000. 30. 1000. 35.
1979-02-21 00:00:00 35. 1000. 30. 1000. 30. 1000. 35.
1979-02-21 06:00:00 40. 1002. 30. 1000. 30. 1000. 40.
1979-02-21 12:00:00 50. 1002. 30. 25. 1001. 25. 1002. 50.
1979-02-21 18:00:00 65. 1002. 30. 25. 1002. 25. 1002. 65.
1979-02-22 00:00:00 85. 1002. 25. 1002. 25. 1002. 85.
1979-02-22 06:00:00 95. 1001. 25. 1001. 25. 1002. 95.
1979-02-22 12:00:00 95. 1001. 25. 1001. 30. 1001. 95.
1979-02-22 18:00:00 80. 999. 30. 999. 30. 999. 80.
1979-02-23 00:00:00 60. 999. 30. 999. 30. 999. 60.
1979-02-23 06:00:00 50. 999. 30. 999. 30. 999. 50.
1979-02-23 12:00:00 45. 998. 30. 35. 998. 35. 998. 45.
1979-02-23 18:00:00 40. 998. 30. 35. 998. 35. 998. 40.
1979-02-24 00:00:00 35. 997. 35. 997. 35. 997. 35.
jtwc_sh bom td9636 neumann ds824_au ds824_sh
1979-02-24 06:00:00 35. 996. 35. 996. 35. 996. 35.
1979-02-24 12:00:00 35. 996. 35. 35. 996. 35. 996. 35.
1979-02-24 18:00:00 996. 35. 35. 996. 35. 996.
1979-02-25 00:00:00 994. 50. 40. 994. 40. 994.
1979-02-25 06:00:00 990. 50. 45. 990. 45. 990.
1979-02-25 12:00:00 983. 85. 55. 984. 55. 983.
1979-02-25 18:00:00 975. 85. 65. 976. 65. 975.
1979-02-26 00:00:00 965. 95. 80. 965. 80. 965.
1979-02-26 06:00:00 975. 95. 80. 965. 65. 975.
1979-02-26 12:00:00 985. 60. 60. 983. 55. 985.
1979-02-26 18:00:00 990. 60. 45. 987. 55. 985.
1979-02-27 00:00:00 990. 35. 35. 989. 45. 990.
1979-02-27 06:00:00 994. 35. 30. 991. 45. 990.
1979-02-27 12:00:00 994. 25. 993. 40. 994.
1979-02-27 18:00:00 998. 25. 995. 40. 994.
1979-02-28 00:00:00 998. 25. 997. 35. 998.
1979-02-28 06:00:00 999. 25. 998. 35. 998.
1979-02-28 12:00:00 999. 25. 998. 30. 999.
1979-02-28 18:00:00 998. 25. 998. 30. 999.
1979-03-01 00:00:00 998. 20. 998. 35. 998.
1979-03-01 06:00:00 999. 20. 998. 35. 998.
1979-03-01 12:00:00 999. 20. 998. 30. 999.
1979-03-01 18:00:00 999. 20. 999. 30. 999.
1979-03-02 00:00:00 1001. 20. 1000. 30. 1001.
jtwc_sh bom td9636 neumann ds824_au ds824_sh
1979-03-02 06:00:00 1001. 20. 1000. 30. 1001.
1979-03-02 12:00:00 1000. 20. 1000. 30. 1000.
1979-03-02 18:00:00 1000. 20. 1000. 30. 1000.
1979-03-03 00:00:00 1000. 20. 1000. 30. 1000.
1979-03-03 06:00:00 1000. 20. 1000. 30. 1000.
1979-03-03 12:00:00 1000. 20. 1000. 30. 1000.
1979-03-03 18:00:00 1000. 20. 1000.
1979-03-04 00:00:00 20. 1000.

top of page Links to source data

Source Source file Format
jtwc_sh bsh161979.txt ATCF
bom Newcyclonedatabase-08repair.csv:Line=10785:ROSA CSV file (from Excel file)
td9636 cons_worldwide_trop_cyclone_18710101-19891231-006:Line=10836 TD 9636
neumann tracks.sh:Storm=548:ROSA:BSH1679:BM527 HURDAT
ds824_au aus_area.dat:581:ROSA HURDAT
ds824_sh s_hem.dat:1394:16P HURDAT